Latest Weather Observations for Fortescue Dave Forrest

IDW60801

Issued at 2:35 pm WST Thursday 23 October 2014 (issued every 30 minutes, with the page automatically refreshed every 10 minutes)

About weather observations | Map of weather stations | Latest weather observations for WA | Other Formats
Station Details ID: 505056 Name: FORTESCUE DAVE FORREST Lat: -22.29 Lon: 119.43 Height: 474.6 m
Data from the previous 72 hours. | See also: Recent months for locations in Western Australia
Date/Time
WST
Temp
°C
App
Temp
°C
Dew
Point
Rel
Hum
%
Delta-T
°C
Wind Press
QNH
hPa
Press
MSL
hPa
Rain
since 9 am
mm
Dir
 
Spd
km/h
Gust
km/h
Spd
kts
Gust
kts
23/02:30pm 38.0 35.0 4.2 12 18.5 SSW 9 15 5 8 1012.4 1009.4 -
23/02:00pm 37.4 34.5 4.5 13 18.1 W 9 20 5 11 1012.6 1009.7 -
23/01:30pm 36.6 32.9 4.6 14 17.5 SSW 13 24 7 13 1013.0 1010.1 -
23/01:00pm 37.4 35.2 5.5 14 17.8 ENE 6 19 3 10 1013.2 1010.3 -
23/12:30pm 35.8 32.4 5.9 15 16.6 SSW 13 24 7 13 1013.7 1010.7 -
23/12:00pm 36.3 32.1 5.6 15 17.0 SSW 17 26 9 14 1014.2 1011.2 -
23/11:30am 35.6 32.1 7.4 17 16.0 SE 15 30 8 16 1014.7 1011.8 -
23/11:00am 35.4 31.4 6.7 17 16.1 SSE 17 30 9 16 1014.9 1012.0 -
23/10:30am 34.4 30.1 7.7 19 15.2 S 20 30 11 16 1015.3 1012.4 -
23/10:00am 33.0 28.0 8.1 21 14.1 S 24 33 13 18 1015.8 1012.8 -
23/09:00am 31.7 27.5 8.3 23 13.2 SSE 20 35 11 19 1015.9 1012.9 0.0
23/08:30am 30.6 26.4 8.1 24 12.6 SSE 20 32 11 17 1015.8 1012.8 0.0
23/08:00am 29.9 25.6 7.9 25 12.3 SSE 20 33 11 18 1015.9 1012.9 0.0
23/07:41am 28.8 25.0 7.5 26 11.7 SSE 17 26 9 14 1015.9 1012.9 0.0
23/07:30am 28.5 24.3 7.5 26 11.5 SSE 19 28 10 15 1015.8 1012.8 0.0
23/07:00am 26.8 23.5 6.6 27 10.8 SSE 13 22 7 12 1015.7 1012.7 0.0
23/06:30am 26.5 23.6 6.4 27 10.7 SSE 11 17 6 9 1015.3 1012.4 0.0
23/06:00am 25.4 22.4 5.8 28 10.3 SSE 11 15 6 8 1015.0 1012.1 0.0
23/05:30am 25.1 22.3 5.2 27 10.3 SE 9 13 5 7 1014.7 1011.8 0.0
23/05:00am 26.2 23.1 5.7 27 10.8 SSE 11 19 6 10 1014.3 1011.3 0.0
23/04:30am 26.3 23.1 5.3 26 11.0 SSE 11 15 6 8 1014.2 1011.2 0.0
23/04:00am 26.7 23.9 5.1 25 11.3 SSE 9 13 5 7 1013.8 1010.8 0.0
23/03:30am 27.4 24.0 5.7 25 11.5 S 13 19 7 10 1013.8 1010.8 0.0
23/03:00am 27.7 23.9 5.7 24 11.7 SSE 15 24 8 13 1013.7 1010.7 0.0
23/02:30am 27.4 24.6 5.1 24 11.7 SSE 9 15 5 8 1013.6 1010.6 0.0
23/02:00am 27.8 24.9 4.9 23 12.0 S 9 13 5 7 1013.7 1010.7 0.0
23/01:30am 27.8 25.3 4.7 23 12.1 SSW 7 11 4 6 1013.8 1010.8 0.0
23/01:00am 28.5 26.0 4.6 21 12.5 S 7 11 4 6 1013.9 1010.9 0.0
23/12:30am 29.4 26.1 4.5 20 13.1 SSW 11 17 6 9 1014.2 1011.2 0.0
23/12:00am 29.5 26.2 4.3 20 13.2 SSW 11 17 6 9 1014.5 1011.6 0.0
 
Date/Time
WST
Temp
°C
App
Temp
°C
Dew
Point
Rel
Hum
%
Delta-T
°C
Wind Press
QNH
hPa
Press
MSL
hPa
Rain
since 9 am
mm
Dir
 
Spd
km/h
Gust
km/h
Spd
kts
Gust
kts
22/11:38pm 29.6 26.6 4.0 19 13.4 SSW 9 15 5 8 1014.6 1011.7 0.0
22/11:30pm 29.9 26.5 3.9 19 13.6 SSW 11 17 6 9 1014.6 1011.7 0.0
22/11:00pm 30.1 26.5 3.0 17 13.9 SSW 11 17 6 9 1014.8 1011.9 0.0
22/10:58pm 30.2 27.0 2.9 17 14.0 SSW 9 17 5 9 1014.9 1012.0 0.0
22/10:30pm 29.6 26.6 0.9 15 14.2 SSE 6 13 3 7 1015.3 1012.4 0.0
22/10:00pm 29.7 26.5 0.6 15 14.3 SSE 7 13 4 7 1015.2 1012.3 0.0
22/09:50pm 29.5 25.9 0.5 15 14.2 ESE 9 13 5 7 1015.3 1012.4 0.0
22/09:30pm 30.4 26.8 0.5 14 14.8 S 9 11 5 6 1015.3 1012.4 0.0
22/09:19pm 30.4 26.8 0.3 14 14.8 S 9 13 5 7 1015.3 1012.4 0.0
22/09:00pm 30.8 26.7 -0.1 13 15.1 S 11 17 6 9 1015.4 1012.5 0.0
22/08:48pm 30.6 26.9 -0.3 13 15.1 SSE 9 13 5 7 1015.4 1012.5 0.0
22/08:30pm 31.1 27.0 -0.5 13 15.4 SSE 11 15 6 8 1015.3 1012.4 0.0
22/08:00pm 31.3 27.4 -1.2 12 15.7 SE 9 13 5 7 1015.1 1012.2 0.0
22/07:35pm 32.1 28.2 -1.7 11 16.3 SE 9 13 5 7 1014.9 1012.0 0.0
22/07:30pm 32.2 28.3 -1.7 11 16.3 SE 9 13 5 7 1014.9 1012.0 0.0
22/07:00pm 33.2 28.8 -2.2 10 17.0 SSE 11 17 6 9 1014.7 1011.8 0.0
22/06:30pm 33.9 29.2 -1.6 10 17.3 SSE 13 22 7 12 1014.4 1011.5 0.0
22/06:17pm 33.5 29.6 -1.3 11 17.0 SE 9 11 5 6 1014.1 1011.1 0.0
22/06:00pm 34.1 30.2 -1.3 10 17.4 SE 9 11 5 6 1014.0 1011.0 0.0
22/05:30pm 36.2 31.2 -1.3 9 18.7 ESE 15 19 8 10 1013.7 1010.7 0.0
22/05:14pm 36.3 33.0 -1.1 9 18.7 SE 6 15 3 8 1013.7 1010.7 0.0
22/05:09pm 36.4 33.5 -0.9 9 18.7 ESE 4 9 2 5 1013.6 1010.6 0.0
22/05:00pm 36.7 32.9 -1.1 9 18.9 ESE 9 15 5 8 1013.6 1010.6 0.0
22/04:30pm 37.1 32.1 -0.9 9 19.1 SE 15 24 8 13 1013.5 1010.5 0.0
22/04:00pm 37.7 33.9 -1.0 8 19.5 ESE 9 19 5 10 1013.6 1010.6 0.0
22/03:57pm 37.8 34.0 -0.8 9 19.6 ESE 9 19 5 10 1013.6 1010.6 0.0
22/03:39pm 37.1 33.7 -0.8 9 19.1 E 7 17 4 9 1013.6 1010.6 0.0
22/03:30pm 37.2 33.4 -0.8 9 19.2 ESE 9 19 5 10 1013.7 1010.7 0.0
22/03:00pm 38.5 34.3 -0.9 8 20.0 SSE 11 19 6 10 1013.8 1010.8 0.0
22/02:56pm 38.5 34.7 -0.8 8 20.0 SE 9 19 5 10 1013.8 1010.8 0.0
22/02:30pm 37.6 34.3 -1.2 8 19.5 E 6 13 3 7 1014.1 1011.1 0.0
22/02:00pm 37.4 33.9 -1.0 9 19.3 S 7 15 4 8 1014.4 1011.5 0.0
22/01:30pm 37.8 32.4 -1.2 8 19.6 SE 17 24 9 13 1014.7 1011.8 0.0
22/01:00pm 37.2 31.4 -1.3 9 19.3 S 19 28 10 15 1015.2 1012.3 0.0
22/12:30pm 37.5 31.5 -1.2 8 19.5 SE 20 30 11 16 1015.7 1012.7 0.0
22/12:00pm 37.0 32.4 -1.3 9 19.1 S 13 26 7 14 1016.3 1013.3 0.0
22/11:30am 36.9 31.5 -1.3 9 19.1 S 17 24 9 13 1016.5 1013.6 0.0
22/11:00am 36.1 30.0 -2.5 8 18.8 SE 20 32 11 17 1016.9 1014.0 0.0
22/10:30am 35.2 29.5 -0.8 10 18.0 SE 19 32 10 17 1017.5 1014.6 0.0
22/10:00am 34.2 28.5 -0.4 11 17.2 SSE 19 30 10 16 1018.0 1015.0 0.0
22/09:30am 32.7 27.0 -0.4 12 16.3 SE 19 28 10 15 1018.2 1015.2 0.0
22/09:00am 31.6 26.1 0.3 13 15.5 SE 19 28 10 15 1018.3 1015.4 0.0
22/08:30am 30.8 25.8 1.4 15 14.8 SE 17 26 9 14 1018.1 1015.1 0.0
22/08:00am 29.8 26.0 -0.8 14 14.7 S 9 17 5 9 1017.6 1014.7 0.0
22/07:30am 28.5 24.9 -1.9 13 14.2 SSE 7 15 4 8 1017.5 1014.6 0.0
22/07:00am 26.5 23.1 -2.0 15 13.1 SW 6 7 3 4 1017.4 1014.5 0.0
22/06:30am 24.8 21.4 -1.7 17 12.1 SW 6 9 3 5 1017.2 1014.3 0.0
22/06:00am 22.9 19.4 -2.5 18 11.2 SW 6 7 3 4 1016.9 1014.0 0.0
22/05:30am 21.9 18.4 -2.6 19 10.7 WNW 6 9 3 5 1016.7 1013.8 0.0
22/05:00am 23.2 19.5 -2.8 17 11.4 SE 7 13 4 7 1016.5 1013.6 0.0
22/04:30am 22.0 18.4 -2.0 20 10.6 SW 7 11 4 6 1016.4 1013.5 0.0
22/04:00am 23.9 20.9 -1.9 18 11.6 SSW 4 6 2 3 1016.3 1013.3 0.0
22/03:30am 23.3 20.7 -2.0 18 11.3 W 2 7 1 4 1016.2 1013.2 0.0
22/03:00am 23.9 21.3 -1.7 18 11.6 WNW 2 6 1 3 1016.4 1013.5 0.0
22/02:30am 24.2 20.8 -1.7 18 11.8 SW 6 9 3 5 1016.3 1013.3 0.0
22/02:00am 25.4 21.5 -1.4 17 12.3 WSW 9 13 5 7 1016.4 1013.5 0.0
22/01:30am 26.7 22.1 -0.9 16 13.0 WSW 13 17 7 9 1016.6 1013.7 0.0
22/01:00am 27.6 22.7 -0.7 15 13.4 W 15 22 8 12 1016.8 1013.9 0.0
22/12:30am 27.7 22.1 0.0 16 13.3 W 19 24 10 13 1016.6 1013.7 0.0
22/12:00am 27.4 22.2 0.4 17 13.0 W 17 20 9 11 1016.7 1013.8 0.0
 
Date/Time
WST
Temp
°C
App
Temp
°C
Dew
Point
Rel
Hum
%
Delta-T
°C
Wind Press
QNH
hPa
Press
MSL
hPa
Rain
since 9 am
mm
Dir
 
Spd
km/h
Gust
km/h
Spd
kts
Gust
kts
21/11:30pm 26.9 22.9 0.8 18 12.7 WNW 11 17 6 9 1016.9 1014.0 0.0
21/11:00pm 28.4 23.6 0.1 16 13.7 NW 15 19 8 10 1017.0 1014.1 0.0
21/10:30pm 27.1 22.3 -2.3 14 13.5 NNW 13 17 7 9 1017.2 1014.3 0.0
21/10:00pm 27.7 23.6 -2.9 13 13.9 NNE 9 11 5 6 1017.2 1014.3 0.0
21/09:30pm 29.2 24.3 -3.2 12 14.9 NE 13 13 7 7 1017.4 1014.5 0.0
21/09:00pm 27.8 24.1 -3.0 13 14.0 N 7 13 4 7 1017.4 1014.5 0.0
21/08:49pm 27.2 23.5 -3.0 13 13.7 NNW 7 11 4 6 1017.3 1014.4 0.0
21/08:32pm 27.7 24.5 -3.4 13 14.1 NNW 4 7 2 4 1017.1 1014.2 0.0
21/08:30pm 27.6 24.4 -3.5 13 14.0 NNW 4 7 2 4 1017.1 1014.2 0.0
21/08:00pm 29.2 26.0 -3.6 11 14.9 NNE 4 6 2 3 1017.0 1014.1 0.0
21/07:30pm 29.3 26.1 -3.5 11 15.0 NNE 4 6 2 3 1016.6 1013.7 0.0
21/07:00pm 31.8 28.2 -3.5 10 16.4 SE 6 7 3 4 1016.2 1013.2 0.0
21/06:30pm 33.0 29.4 -3.4 9 17.1 SW 6 7 3 4 1015.8 1012.8 0.0
21/06:00pm 35.1 31.5 -4.0 8 18.5 W 6 9 3 5 1015.4 1012.5 0.0
21/05:30pm 35.7 30.7 -4.2 7 18.9 SSW 13 22 7 12 1015.1 1012.2 0.0
21/05:00pm 36.3 32.0 -4.7 7 19.3 S 9 17 5 9 1015.0 1012.1 0.0
21/04:30pm 36.3 30.1 -4.4 7 19.3 SW 19 28 10 15 1015.0 1012.1 0.0
21/04:00pm 36.7 32.9 -4.0 7 19.5 S 7 15 4 8 1015.0 1012.1 0.0
21/03:30pm 36.3 31.3 -4.5 7 19.3 W 13 22 7 12 1015.1 1012.2 0.0
21/03:00pm 36.5 30.8 -4.1 7 19.4 W 17 28 9 15 1015.3 1012.4 0.0
21/02:30pm 35.7 30.0 -3.4 8 18.8 WNW 17 28 9 15 1015.7 1012.7 0.0
21/02:00pm 35.5 32.0 -2.7 8 18.5 W 6 19 3 10 1015.9 1012.9 0.0
21/01:30pm 35.8 30.2 -3.0 8 18.8 NNW 17 30 9 16 1016.4 1013.5 0.0
21/01:00pm 35.6 31.6 -1.9 9 18.4 NNE 9 26 5 14 1016.9 1014.0 0.0
21/12:30pm 34.7 28.6 -2.2 9 17.9 W 20 30 11 16 1017.5 1014.6 0.0
21/12:00pm 35.0 30.3 -2.1 9 18.1 WNW 13 32 7 17 1018.0 1015.0 0.0
21/11:30am 34.2 30.6 -2.1 10 17.6 S 7 13 4 7 1018.5 1015.6 0.0
21/11:00am 34.4 30.5 -1.6 10 17.6 WNW 9 24 5 13 1018.9 1016.0 0.0
21/10:30am 32.8 27.4 -1.3 11 16.6 NNW 17 28 9 15 1019.4 1016.5 0.0
21/10:00am 32.3 28.9 -0.4 12 16.1 NE 7 13 4 7 1019.7 1016.8 0.0
21/09:30am 32.0 28.0 0.3 13 15.8 ESE 11 17 6 9 1020.0 1017.1 0.0
21/09:00am 30.2 25.6 1.3 15 14.4 ESE 15 22 8 12 1020.0 1017.1 0.0
21/08:30am 28.8 24.2 1.4 17 13.6 ESE 15 22 8 12 1020.2 1017.3 0.0
21/08:00am 27.7 23.1 1.5 18 12.9 ESE 15 20 8 11 1020.2 1017.3 0.0
21/07:30am 26.2 22.0 1.4 20 12.1 SE 13 20 7 11 1019.9 1017.0 0.0
21/07:00am 24.7 21.2 1.1 21 11.3 SE 9 13 5 7 1019.7 1016.8 0.0
21/06:30am 22.1 19.1 0.6 24 10.0 SE 6 11 3 6 1019.5 1016.6 0.0
21/06:00am 17.5 15.1 -0.2 30 7.8 SSW 2 4 1 2 1019.2 1016.3 0.0
21/05:30am 18.2 15.4 -0.1 29 8.2 SSE 4 6 2 3 1018.7 1015.8 0.0
21/05:00am 18.2 15.8 -0.4 28 8.2 SSE 2 4 1 2 1018.3 1015.4 0.0
21/04:30am 19.0 15.9 0.0 28 8.5 S 6 7 3 4 1018.0 1015.0 0.0
21/04:00am 19.1 16.7 -0.1 27 8.6 WNW 2 4 1 2 1017.6 1014.7 0.0
21/03:30am 20.2 17.9 0.1 26 9.1 W 2 4 1 2 1017.3 1014.4 0.0
21/03:00am 20.5 17.8 0.2 25 9.3 W 4 4 2 2 1017.0 1014.1 0.0
21/02:30am 21.1 18.0 0.3 25 9.6 NW 6 7 3 4 1017.0 1014.1 0.0
21/02:00am 22.9 20.1 -0.4 21 10.7 W 4 6 2 3 1017.1 1014.2 0.0
21/01:30am 23.8 20.6 -0.2 20 11.2 WSW 6 9 3 5 1016.9 1014.0 0.0
21/01:00am 24.0 20.7 0.3 21 11.1 WSW 7 9 4 5 1017.1 1014.2 0.0
21/12:30am 24.6 21.5 1.6 22 11.1 W 7 11 4 6 1017.1 1014.2 0.0
21/12:00am 24.6 21.8 2.0 23 11.0 W 6 7 3 4 1017.4 1014.5 0.0
 
Date/Time
WST
Temp
°C
App
Temp
°C
Dew
Point
Rel
Hum
%
Delta-T
°C
Wind Press
QNH
hPa
Press
MSL
hPa
Rain
since 9 am
mm
Dir
 
Spd
km/h
Gust
km/h
Spd
kts
Gust
kts
20/11:30pm 26.0 23.1 2.4 21 11.7 WSW 7 9 4 5 1017.6 1014.7 0.0
20/11:00pm 26.6 23.0 3.1 22 11.8 W 11 15 6 8 1017.6 1014.7 0.0
20/10:30pm 26.5 22.5 2.6 21 11.9 WNW 13 17 7 9 1017.5 1014.6 0.0
20/10:00pm 27.3 23.5 1.5 18 12.7 NW 11 15 6 8 1017.4 1014.5 0.0
20/09:30pm 28.2 23.1 0.8 17 13.4 NNW 17 22 9 12 1017.2 1014.3 0.0
20/09:00pm 28.1 23.4 0.6 17 13.4 NNW 15 19 8 10 1017.0 1014.1 0.0
20/08:30pm 28.2 23.8 0.3 16 13.5 NNW 13 17 7 9 1016.8 1013.9 0.0
20/08:00pm 29.7 25.3 0.1 15 14.4 NNW 13 19 7 10 1016.6 1013.7 0.0
20/07:30pm 30.7 25.5 -0.2 13 15.1 NW 17 20 9 11 1016.1 1013.1 0.0
20/07:00pm 31.4 26.2 -0.1 13 15.5 NW 17 22 9 12 1015.5 1012.6 0.0
20/06:30pm 32.2 27.0 0.0 12 16.0 NW 17 22 9 12 1015.0 1012.1 0.0
20/06:00pm 33.0 26.8 -0.1 12 16.5 NW 22 35 12 19 1014.6 1011.7 0.0
20/05:30pm 34.1 28.0 -2.1 10 17.5 W 20 28 11 15 1014.3 1011.3 0.0
20/05:00pm 34.5 27.1 -0.4 11 17.4 NW 28 39 15 21 1013.8 1010.8 0.0
20/04:30pm 34.9 27.6 0.3 11 17.5 NW 28 35 15 19 1013.6 1010.6 0.0
20/04:00pm 35.3 28.0 -0.2 10 17.9 WNW 28 44 15 24 1013.3 1010.4 0.0
20/03:30pm 34.8 27.1 -0.3 11 17.6 WNW 30 41 16 22 1013.5 1010.5 0.0
20/03:00pm 35.0 28.1 0.4 11 17.6 WNW 26 39 14 21 1013.7 1010.7 0.0

Other Formats:

Comma delimited format used in spreadsheet applications
http://www.bom.gov.au/fwo/IDW60801/IDW60801.99736.axf

JavaScript Object Notation format (JSON) in row-major order
http://www.bom.gov.au/fwo/IDW60801/IDW60801.99736.json